Pearland, TX

6:13 PM CST on November 22, 2014 (GMT -0600)
Lawrence Place | Change Station
CLOSE
Current Station
Personal Weather Station
Location: Pearland, TX
Elevation: 59 ft
Nearby Weather Stations

Elev 59 ft 29.53 °N, 95.31 °W | Updated 3 minutes ago

Overcast
Overcast
66.3 °F
Feels Like 66.3 °F
N
0.0
Wind Variable Wind from ESE
Gusts 0.0 mph

Today
High -- | Low -- °F
--% Chance of Precip.
Yesterday
High -- | Low -- °F
Precip. -- in
6:51 AM 5:23 PM
New Moon, 0% visible
Pressure 29.85 in
Visibility 5.0 miles
Clouds Mostly Cloudy 7500 ft
Overcast 9000 ft
Dew Point 65 °F
Humidity 96%
Rainfall 0.00 in
Snow Depth Not available.
UV 0 out of 12
Pollen .80 out of 12
Air Quality Not available.
Flu Activity Not available.
METAR KLVJ 222353Z AUTO 08006KT 5SM -RA BR BKN075 OVC090 19/18 A2985 RMK AO2 LTG DSNT N RAB2259E28B47 SLP106 P0004 60004 T01940183 10206 20183 56009

More Conditions Fewer Conditions

Pressure 29.85 in
Visibility 5.0 miles
Clouds Mostly Cloudy 7500 ft
Overcast 9000 ft
Dew Point 65 °F
Humidity 96%
Rainfall 0.00 in
Snow Depth Not available.
UV 0 out of 12
Pollen .80 out of 12
Air Quality Not available.
Flu Activity Not available.
METAR KLVJ 222353Z AUTO 08006KT 5SM -RA BR BKN075 OVC090 19/18 A2985 RMK AO2 LTG DSNT N RAB2259E28B47 SLP106 P0004 60004 T01940183 10206 20183 56009

More Conditions Fewer Conditions

10-Day Weather Forecast

Almanac

Astronomy

Nov. 22, 2014 Rise Set
Actual Time
Civil Twilight
Nautical Twilight
Astronomical Twilight
Moon
Length of Visible Light
Length of Day
Tomorrow will be .
, % of the Moon is Illuminated

Today's Extremes

State Highs State Lows

Community

WunderPhotos

Upload Photos

1,772,931 photos uploaded!

WunderBlogs® & News

Nearby

Air Quality

  Air Quality AQ Index Pollutant
Not available.

Snow Depth

Station Depth Elevation

Earthquake Activity

City Distance Mag. Time & Date
Minimum magnitude displayed is 2.5.

Coastal Water Temperatures

Place Temperature

Nearby Weather Stations